Time;durP1;ratioP1;P1;durP2;ratioP2;P2;SDS_P1;SDS_P2;PMS_P1;PMS_P2;Temp;Humidity;BMP_temperature;BMP_pressure;BME280_temperature;BME280_humidity;BME280_pressure;Samples;Min_cycle;Max_cycle;Signal;HPM_P1;HPM_P2
2024/02/22 00:00:41;;;;;;;14.25;11.90;;;;;;;-146.25;100.00;52621.66;2071979;28;37811;-66
2024/02/22 00:01:43;;;;;;;15.23;12.57;;;;;;;-146.25;100.00;52654.09;2072344;28;20050;-67
2024/02/22 00:02:46;;;;;;;15.25;12.20;;;;;;;-146.25;100.00;52652.06;2072544;28;20038;-66
2024/02/22 00:03:47;;;;;;;15.73;12.27;;;;;;;-146.25;100.00;52623.69;2080691;28;36642;-66
2024/02/22 00:04:49;;;;;;;20.42;12.50;;;;;;;-146.25;100.00;52631.78;2071094;28;34736;-66
2024/02/22 00:05:51;;;;;;;15.80;12.40;;;;;;;-146.25;100.00;52676.41;2072171;28;35917;-66
2024/02/22 00:06:57;;;;;;;16.30;12.32;;;;;;;-146.25;100.00;52635.84;2080202;28;31527;-66
2024/02/22 00:07:59;;;;;;;14.50;12.32;;;;;;;-146.25;100.00;52643.97;2080422;28;33804;-66
2024/02/22 00:09:02;;;;;;;15.27;12.30;;;;;;;-146.25;100.00;52625.72;2080547;28;34686;-66
2024/02/22 00:10:06;;;;;;;14.80;12.35;;;;;;;-146.25;100.00;52607.47;2080359;28;34299;-66
2024/02/22 00:11:09;;;;;;;13.27;11.88;;;;;;;-146.25;100.00;52635.84;2079712;28;20104;-66
2024/02/22 00:12:11;;;;;;;15.50;12.30;;;;;;;-146.25;100.00;52641.94;2080913;28;24375;-66
2024/02/22 00:13:14;;;;;;;15.40;11.85;;;;;;;-146.25;100.00;52621.66;2080213;28;20848;-66
2024/02/22 00:14:16;;;;;;;15.02;12.60;;;;;;;-146.25;100.00;52615.56;2081221;28;20808;-66
2024/02/22 00:15:18;;;;;;;18.45;12.70;;;;;;;-146.25;100.00;52607.47;2080370;28;25435;-66
2024/02/22 00:16:20;;;;;;;14.45;12.68;;;;;;;-146.25;100.00;52611.50;2080677;28;21070;-66
2024/02/22 00:17:23;;;;;;;14.63;12.55;;;;;;;-146.25;100.00;52656.13;2080436;28;26938;-66
2024/02/22 00:18:25;;;;;;;16.15;13.15;;;;;;;-146.25;100.00;52639.91;2080226;28;35139;-65
2024/02/22 00:19:27;;;;;;;15.25;12.18;;;;;;;-146.25;100.00;52623.69;2080550;28;31839;-66
2024/02/22 00:20:30;;;;;;;13.63;12.23;;;;;;;-146.25;100.00;52641.94;2080288;28;32631;-66
2024/02/22 00:21:32;;;;;;;16.77;13.05;;;;;;;-146.25;100.00;52599.34;2080810;28;20172;-66
2024/02/22 00:22:34;;;;;;;15.43;12.27;;;;;;;-146.25;100.00;52625.72;2080347;28;33975;-66
2024/02/22 00:23:35;;;;;;;16.33;12.40;;;;;;;-146.25;100.00;52645.97;2079989;28;33198;-66
2024/02/22 00:24:38;;;;;;;16.58;12.98;;;;;;;-146.25;100.00;52599.34;2080472;28;33821;-66
2024/02/22 00:25:42;;;;;;;19.63;13.77;;;;;;;-146.25;100.00;52641.94;2079708;28;32790;-66
2024/02/22 00:26:45;;;;;;;15.40;13.63;;;;;;;-146.25;100.00;52583.13;2080338;28;32910;-66
2024/02/22 00:27:47;;;;;;;15.85;12.88;;;;;;;-146.25;100.00;52639.91;2080274;28;32525;-66
2024/02/22 00:28:49;;;;;;;17.65;13.15;;;;;;;-146.25;100.00;52603.41;2071113;28;39293;-66
2024/02/22 00:29:50;;;;;;;16.48;13.55;;;;;;;-146.25;100.00;52645.97;2071208;28;33572;-66
2024/02/22 00:30:52;;;;;;;15.50;13.20;;;;;;;-146.25;100.00;52656.13;2080527;28;31802;-66
2024/02/22 00:31:56;;;;;;;15.98;13.02;;;;;;;-146.25;100.00;52615.56;2080504;28;20097;-66
2024/02/22 00:32:58;;;;;;;16.25;12.60;;;;;;;-146.25;100.00;52623.69;2080253;28;37448;-66
2024/02/22 00:34:00;;;;;;;15.52;13.52;;;;;;;-146.25;100.00;52654.09;2080469;28;20441;-66
2024/02/22 00:35:02;;;;;;;14.63;12.80;;;;;;;-146.25;100.00;52645.97;2080594;28;33193;-66
2024/02/22 00:36:05;;;;;;;15.82;13.73;;;;;;;-146.25;100.00;52613.53;2080390;28;20053;-66
2024/02/22 00:37:07;;;;;;;17.77;13.98;;;;;;;-146.25;100.00;52641.94;2080408;28;35183;-66
2024/02/22 00:38:09;;;;;;;15.27;13.40;;;;;;;-146.25;100.00;52611.50;2079798;28;35325;-66
2024/02/22 00:39:13;;;;;;;18.02;13.93;;;;;;;-146.25;100.00;52589.22;2080755;28;20447;-66
2024/02/22 00:40:17;;;;;;;17.58;13.95;;;;;;;-146.25;100.00;52617.59;2079891;28;34811;-66
2024/02/22 00:41:19;;;;;;;16.85;13.88;;;;;;;-146.25;100.00;52639.91;2080609;28;34028;-66
2024/02/22 00:42:23;;;;;;;16.80;14.02;;;;;;;-146.25;100.00;52664.22;2080470;28;20034;-66
2024/02/22 00:43:25;;;;;;;18.10;14.02;;;;;;;-146.25;100.00;52645.97;2071019;28;36366;-66
2024/02/22 00:44:27;;;;;;;17.08;13.93;;;;;;;-146.25;100.00;52603.41;2071986;28;20051;-66
2024/02/22 00:45:29;;;;;;;17.75;14.15;;;;;;;-146.25;100.00;52615.56;2080157;28;35912;-66
2024/02/22 00:46:36;;;;;;;18.23;14.57;;;;;;;-146.25;100.00;52652.06;2080195;28;36631;-66
2024/02/22 00:47:38;;;;;;;15.30;13.57;;;;;;;-146.25;100.00;52605.44;2079857;28;34446;-66
2024/02/22 00:48:40;;;;;;;16.20;14.07;;;;;;;-146.25;100.00;52607.47;2079122;28;34313;-66
2024/02/22 00:49:44;;;;;;;16.90;14.18;;;;;;;-146.25;100.00;52617.59;2080438;28;33302;-67
2024/02/22 00:50:46;;;;;;;16.20;13.98;;;;;;;-146.25;100.00;52609.50;2079700;28;35684;-66
2024/02/22 00:51:49;;;;;;;15.88;13.93;;;;;;;-146.25;100.00;52639.91;2079921;28;20169;-66
2024/02/22 00:52:50;;;;;;;18.60;14.73;;;;;;;-146.25;100.00;52656.13;2078995;28;32368;-66
2024/02/22 00:53:55;;;;;;;16.10;13.98;;;;;;;-146.25;100.00;52601.38;2080524;28;20053;-66
2024/02/22 00:54:57;;;;;;;15.52;13.93;;;;;;;-146.25;100.00;52627.75;2080671;28;33973;-66
2024/02/22 00:55:58;;;;;;;17.85;15.60;;;;;;;-146.25;100.00;52631.78;2071349;28;33590;-66
2024/02/22 00:57:03;;;;;;;17.15;15.35;;;;;;;-146.25;100.00;52652.06;2072174;28;20845;-66
2024/02/22 00:58:05;;;;;;;17.00;14.80;;;;;;;-146.25;100.00;52656.13;2079790;28;34677;-66
2024/02/22 00:59:09;;;;;;;18.98;15.35;;;;;;;-146.25;100.00;52619.63;2079690;28;33244;-66
2024/02/22 01:00:12;;;;;;;17.02;14.80;;;;;;;-146.25;100.00;52617.59;2080369;28;33365;-66
2024/02/22 01:01:14;;;;;;;17.17;15.45;;;;;;;-146.25;100.00;52613.53;2079870;28;28179;-66
2024/02/22 01:02:21;;;;;;;16.98;14.93;;;;;;;-146.25;100.00;52613.53;2080283;28;35283;-66
2024/02/22 01:03:23;;;;;;;17.02;15.20;;;;;;;-146.25;100.00;52631.78;2080087;28;33522;-66
2024/02/22 01:04:24;;;;;;;17.52;15.45;;;;;;;-146.25;100.00;52645.97;2080438;28;37692;-66
2024/02/22 01:05:26;;;;;;;17.63;15.82;;;;;;;-146.25;100.00;52648.00;2079942;28;33885;-66
2024/02/22 01:06:31;;;;;;;18.27;16.02;;;;;;;-146.25;100.00;52631.78;2080101;28;36429;-66
2024/02/22 01:07:33;;;;;;;17.75;16.00;;;;;;;-146.25;100.00;52607.47;2078977;28;34597;-66
2024/02/22 01:08:37;;;;;;;18.08;16.10;;;;;;;-146.25;100.00;52607.47;2080527;28;20034;-66
2024/02/22 01:09:41;;;;;;;18.90;16.90;;;;;;;-146.25;100.00;52625.72;2079624;28;34870;-66
2024/02/22 01:10:45;;;;;;;17.50;15.73;;;;;;;-146.25;100.00;52605.44;2071491;28;33992;-65
2024/02/22 01:11:47;;;;;;;18.45;16.55;;;;;;;-146.25;100.00;52635.84;2072077;28;23985;-66
2024/02/22 01:12:49;;;;;;;18.85;16.58;;;;;;;-146.25;100.00;52656.13;2080152;28;26172;-66
2024/02/22 01:13:53;;;;;;;19.25;17.02;;;;;;;-146.25;100.00;52603.41;2071050;28;20046;-66
2024/02/22 01:14:55;;;;;;;18.15;16.23;;;;;;;-146.25;100.00;52623.69;2071614;28;27708;-66
2024/02/22 01:15:57;;;;;;;18.13;16.20;;;;;;;-146.25;100.00;52643.97;2080577;28;22107;-66
2024/02/22 01:16:58;;;;;;;17.80;16.00;;;;;;;-146.25;100.00;52593.25;2080119;28;30669;-64
2024/02/22 01:18:00;;;;;;;18.83;16.92;;;;;;;-146.25;100.00;52623.69;2079578;28;30911;-66
2024/02/22 01:19:03;;;;;;;17.90;16.00;;;;;;;-146.25;100.00;52623.69;2080569;28;21513;-66
2024/02/22 01:20:06;;;;;;;18.92;16.60;;;;;;;-146.25;100.00;52607.47;2079765;28;32754;-66
2024/02/22 01:21:08;;;;;;;19.45;16.35;;;;;;;-146.25;100.00;52641.94;2079959;28;35296;-66
2024/02/22 01:22:10;;;;;;;19.05;17.05;;;;;;;-146.25;100.00;52607.47;2070646;28;34252;-66
2024/02/22 01:23:12;;;;;;;18.30;16.35;;;;;;;-146.25;100.00;52585.16;2071462;28;35834;-66
2024/02/22 01:24:14;;;;;;;18.70;16.65;;;;;;;-146.25;100.00;52619.63;2079814;28;30499;-66
2024/02/22 01:25:18;;;;;;;19.02;16.50;;;;;;;-146.25;100.00;52589.22;2079599;28;34332;-66
2024/02/22 01:26:21;;;;;;;18.88;16.85;;;;;;;-146.25;100.00;52605.44;2079703;28;36780;-65
2024/02/22 01:27:23;;;;;;;17.77;15.98;;;;;;;-146.25;100.00;52627.75;2080314;28;27885;-66
2024/02/22 01:28:24;;;;;;;18.95;16.77;;;;;;;-146.25;100.00;52607.47;2079301;28;37896;-66
2024/02/22 01:29:27;;;;;;;17.75;15.90;;;;;;;-146.25;100.00;52641.94;2080032;28;32372;-66
2024/02/22 01:30:28;;;;;;;18.65;16.75;;;;;;;-146.25;100.00;52617.59;2079665;28;33972;-66
2024/02/22 01:31:31;;;;;;;18.75;16.75;;;;;;;-146.25;100.00;52648.00;2078471;28;33780;-66
2024/02/22 01:32:33;;;;;;;18.58;16.40;;;;;;;-146.25;100.00;52593.25;2079118;28;34208;-66
2024/02/22 01:33:35;;;;;;;19.73;16.67;;;;;;;-146.25;100.00;52662.22;2079780;28;34459;-66
2024/02/22 01:34:38;;;;;;;18.92;17.02;;;;;;;-146.25;100.00;52656.13;2079781;28;33342;-66
2024/02/22 01:35:39;;;;;;;17.50;15.73;;;;;;;-146.25;100.00;52682.47;2079524;28;36365;-66
2024/02/22 01:36:44;;;;;;;19.88;17.00;;;;;;;-146.25;100.00;52635.84;2080343;28;20050;-66
2024/02/22 01:37:46;;;;;;;18.02;16.13;;;;;;;-146.25;100.00;52623.69;2079708;28;33662;-64
2024/02/22 01:38:48;;;;;;;18.45;16.38;;;;;;;-146.25;100.00;52619.63;2079588;28;37404;-65
2024/02/22 01:39:50;;;;;;;18.58;16.67;;;;;;;-146.25;100.00;52621.66;2079210;28;33738;-66
2024/02/22 01:40:56;;;;;;;19.05;17.13;;;;;;;-146.25;100.00;52623.69;2079387;28;33444;-66
2024/02/22 01:42:00;;;;;;;19.23;17.13;;;;;;;-146.25;100.00;52607.47;2080007;28;36448;-66
2024/02/22 01:43:02;;;;;;;18.15;16.25;;;;;;;-146.25;100.00;52631.78;2079708;28;34491;-66
2024/02/22 01:44:06;;;;;;;17.77;15.98;;;;;;;-146.25;100.00;52637.88;2079453;28;36273;-66
2024/02/22 01:45:08;;;;;;;18.15;16.20;;;;;;;-146.25;100.00;52635.84;2079695;28;32615;-66
2024/02/22 01:46:10;;;;;;;18.83;16.92;;;;;;;-146.25;100.00;52668.28;2079520;28;34746;-65
2024/02/22 01:47:14;;;;;;;18.10;16.20;;;;;;;-146.25;100.00;52631.78;2079724;28;35759;-65
2024/02/22 01:48:17;;;;;;;19.02;17.05;;;;;;;-146.25;100.00;52629.75;2079748;28;36629;-66
2024/02/22 01:49:19;;;;;;;17.90;16.00;;;;;;;-146.25;100.00;52595.28;2078712;28;34480;-65
2024/02/22 01:50:24;;;;;;;18.38;16.52;;;;;;;-146.25;100.00;52629.75;2078731;28;37252;-66
2024/02/22 01:51:28;;;;;;;18.38;16.52;;;;;;;-146.25;100.00;52601.38;2080347;28;20057;-66
2024/02/22 01:52:31;;;;;;;18.42;16.63;;;;;;;-146.25;100.00;52599.34;2079379;28;35854;-66
2024/02/22 01:53:34;;;;;;;18.45;16.55;;;;;;;-146.25;100.00;52633.81;2071616;28;20906;-66
2024/02/22 01:54:36;;;;;;;19.15;17.17;;;;;;;-146.25;100.00;52631.78;2070541;28;33102;-66
2024/02/22 01:55:39;;;;;;;18.92;17.02;;;;;;;-146.25;100.00;52656.13;2071391;28;32357;-66
2024/02/22 01:56:41;;;;;;;18.50;16.58;;;;;;;-146.25;100.00;52623.69;2070829;28;20089;-66
2024/02/22 01:57:43;;;;;;;18.25;16.40;;;;;;;-146.25;100.00;52623.69;2071939;28;20085;-66
2024/02/22 01:58:48;;;;;;;18.38;16.48;;;;;;;-146.25;100.00;52615.56;2070523;28;36124;-66
2024/02/22 01:59:56;;;;;;;17.48;15.57;;;;;;;-146.25;100.00;52629.75;2071172;28;20931;-66
2024/02/22 02:01:03;;;;;;;17.85;15.93;;;;;;;-146.25;100.00;52635.84;2072883;28;20042;-66
2024/02/22 02:02:05;;;;;;;18.17;16.25;;;;;;;-146.25;100.00;52643.97;2070546;28;36093;-66
2024/02/22 02:03:07;;;;;;;19.05;15.90;;;;;;;-146.25;100.00;52641.94;2071591;28;33656;-66
2024/02/22 02:04:12;;;;;;;19.38;16.30;;;;;;;-146.25;100.00;52599.34;2079543;28;33829;-66
2024/02/22 02:05:14;;;;;;;17.10;15.38;;;;;;;-146.25;100.00;52615.56;2070785;28;34218;-66
2024/02/22 02:06:17;;;;;;;18.05;16.25;;;;;;;-146.25;100.00;52639.91;2071318;28;34359;-66
2024/02/22 02:07:19;;;;;;;17.42;15.63;;;;;;;-146.25;100.00;52629.75;2079449;28;32047;-66
2024/02/22 02:08:21;;;;;;;17.67;15.82;;;;;;;-146.25;100.00;52639.91;2079324;28;34657;-66
2024/02/22 02:09:23;;;;;;;18.38;16.33;;;;;;;-146.25;100.00;52625.72;2079849;28;33719;-66
2024/02/22 02:10:24;;;;;;;18.63;16.63;;;;;;;-146.25;100.00;52660.19;2079533;28;38626;-66
2024/02/22 02:11:26;;;;;;;17.42;15.52;;;;;;;-146.25;100.00;52666.25;2071294;28;31569;-66
2024/02/22 02:12:28;;;;;;;17.52;15.73;;;;;;;-146.25;100.00;52605.44;2071668;28;20043;-66
2024/02/22 02:13:30;;;;;;;18.98;15.68;;;;;;;-146.25;100.00;52641.94;2079056;28;39314;-66
2024/02/22 02:14:32;;;;;;;19.45;17.05;;;;;;;-146.25;100.00;52615.56;2071766;28;29452;-66
2024/02/22 02:15:35;;;;;;;17.77;15.80;;;;;;;-146.25;100.00;52613.53;2071491;28;20169;-66
2024/02/22 02:16:37;;;;;;;17.40;15.60;;;;;;;-146.25;100.00;52591.25;2079126;28;36861;-66
2024/02/22 02:17:40;;;;;;;18.13;16.23;;;;;;;-146.25;100.00;52635.84;2079344;28;37139;-66
2024/02/22 02:18:42;;;;;;;17.63;15.82;;;;;;;-146.25;100.00;52619.63;2079469;28;35460;-66
2024/02/22 02:19:44;;;;;;;18.02;16.08;;;;;;;-146.25;100.00;52609.50;2070639;28;34574;-66
2024/02/22 02:21:03;;;;;;;17.63;15.68;;;;;;;-146.25;100.00;52639.91;2070860;28;31929;-66
2024/02/22 02:22:31;;;;;;;17.30;15.50;;;;;;;-146.25;100.00;52641.94;2079742;28;20041;-66
2024/02/22 02:24:09;;;;;;;16.95;15.23;;;;;;;-146.25;100.00;52639.91;2079774;28;37620;-66
2024/02/22 02:25:11;;;;;;;16.52;14.82;;;;;;;-146.25;100.00;52635.84;2079330;28;37076;-66
2024/02/22 02:26:14;;;;;;;15.90;14.25;;;;;;;-146.25;100.00;52648.00;2070630;28;35714;-66
2024/02/22 02:27:16;;;;;;;16.67;14.98;;;;;;;-146.25;100.00;52621.66;2062453;28;34393;-66
2024/02/22 02:28:18;;;;;;;16.30;14.50;;;;;;;-146.25;100.00;52631.78;2070884;28;34135;-66
2024/02/22 02:29:20;;;;;;;17.25;15.45;;;;;;;-146.25;100.00;52627.75;2079248;28;33803;-66
2024/02/22 02:30:26;;;;;;;16.92;15.20;;;;;;;-146.25;100.00;52625.72;2080053;28;20045;-66
2024/02/22 02:31:29;;;;;;;16.83;14.93;;;;;;;-146.25;100.00;52635.84;2079366;28;35756;-66
2024/02/22 02:32:30;;;;;;;17.85;15.23;;;;;;;-146.25;100.00;52643.97;2070474;28;35168;-66
2024/02/22 02:33:33;;;;;;;16.95;15.20;;;;;;;-146.25;100.00;52607.47;2071221;28;33101;-66
2024/02/22 02:34:34;;;;;;;17.15;15.10;;;;;;;-146.25;100.00;52631.78;2079545;28;36668;-67
2024/02/22 02:35:37;;;;;;;17.90;15.45;;;;;;;-146.25;100.00;52556.75;2079341;28;34049;-67
2024/02/22 02:36:39;;;;;;;17.73;15.82;;;;;;;-146.25;100.00;52645.97;2079190;28;34655;-66
2024/02/22 02:37:43;;;;;;;16.95;15.23;;;;;;;-146.25;100.00;52648.00;2079187;28;36807;-66
2024/02/22 02:38:45;;;;;;;16.85;14.82;;;;;;;-146.25;100.00;52658.16;2070428;28;34649;-66
2024/02/22 02:39:49;;;;;;;17.65;15.68;;;;;;;-146.25;100.00;52650.03;2071568;28;32017;-66
2024/02/22 02:40:51;;;;;;;16.40;14.80;;;;;;;-146.25;100.00;52668.28;2078875;28;33939;-65
2024/02/22 02:41:53;;;;;;;16.75;14.95;;;;;;;-146.25;100.00;52639.91;2079545;28;35857;-66
2024/02/22 02:42:54;;;;;;;16.65;14.95;;;;;;;-146.25;100.00;52599.34;2079773;28;20026;-66
2024/02/22 02:43:56;;;;;;;18.13;15.60;;;;;;;-146.25;100.00;52629.75;2078990;28;34435;-66
2024/02/22 02:44:58;;;;;;;16.42;14.65;;;;;;;-146.25;100.00;52643.97;2079308;28;33970;-66
2024/02/22 02:46:02;;;;;;;16.50;14.82;;;;;;;-146.25;100.00;52621.66;2079203;28;34497;-66
2024/02/22 02:47:06;;;;;;;16.13;14.43;;;;;;;-146.25;100.00;52617.59;2079187;28;35597;-66
2024/02/22 02:48:08;;;;;;;16.35;14.55;;;;;;;-146.25;100.00;52603.41;2079405;28;34698;-66
2024/02/22 02:49:10;;;;;;;16.73;14.95;;;;;;;-146.25;100.00;52656.13;2079120;28;33426;-66
2024/02/22 02:50:12;;;;;;;16.02;14.32;;;;;;;-146.25;100.00;52597.31;2079668;28;34748;-66
2024/02/22 02:51:14;;;;;;;16.67;14.93;;;;;;;-146.25;100.00;52619.63;2079171;28;33629;-66
2024/02/22 02:52:16;;;;;;;17.00;15.20;;;;;;;-146.25;100.00;52607.47;2079293;28;33951;-66
2024/02/22 02:53:17;;;;;;;17.63;15.40;;;;;;;-146.25;100.00;52619.63;2079596;28;33929;-66
2024/02/22 02:54:21;;;;;;;16.30;14.50;;;;;;;-146.25;100.00;52643.97;2079188;28;35026;-66
2024/02/22 02:55:23;;;;;;;16.30;14.25;;;;;;;-146.25;100.00;52643.97;2079307;28;36662;-66
2024/02/22 02:56:25;;;;;;;15.80;14.20;;;;;;;-146.25;100.00;52611.50;2079672;28;33301;-66
2024/02/22 02:57:27;;;;;;;16.15;13.73;;;;;;;-146.25;100.00;52585.16;2078743;28;35872;-66
2024/02/22 02:58:28;;;;;;;16.17;14.05;;;;;;;-146.25;100.00;52617.59;2079162;28;33675;-66
2024/02/22 02:59:30;;;;;;;15.88;14.02;;;;;;;-146.25;100.00;52601.38;2078830;28;35749;-66
2024/02/22 03:00:37;;;;;;;15.85;14.00;;;;;;;-146.25;100.00;52635.84;2078566;28;20108;-66
2024/02/22 03:01:47;;;;;;;13.95;12.45;;;;;;;-146.25;100.00;52611.50;2078876;28;34431;-66
2024/02/22 03:02:49;;;;;;;16.00;14.30;;;;;;;-146.25;100.00;52633.81;2079443;28;34324;-66
2024/02/22 03:03:51;;;;;;;15.57;13.63;;;;;;;-146.25;100.00;52615.56;2078872;28;32625;-66
2024/02/22 03:04:55;;;;;;;17.40;14.05;;;;;;;-146.25;100.00;52613.53;2078713;28;36570;-66
2024/02/22 03:05:58;;;;;;;15.88;13.75;;;;;;;-146.25;100.00;52623.69;2079526;28;20046;-66
2024/02/22 03:07:00;;;;;;;16.30;14.27;;;;;;;-146.25;100.00;52652.06;2078627;28;33511;-66
2024/02/22 03:08:02;;;;;;;15.32;13.65;;;;;;;-146.25;100.00;52613.53;2078700;28;34991;-66
2024/02/22 03:09:04;;;;;;;15.38;13.77;;;;;;;-146.25;100.00;52621.66;2079622;28;32684;-66
2024/02/22 03:10:07;;;;;;;15.45;13.77;;;;;;;-146.25;100.00;52611.50;2078808;28;34641;-66
2024/02/22 03:11:08;;;;;;;14.93;13.35;;;;;;;-146.25;100.00;52623.69;2079495;28;35904;-66
2024/02/22 03:12:10;;;;;;;15.45;13.80;;;;;;;-146.25;100.00;52621.66;2078844;28;33128;-67
2024/02/22 03:13:15;;;;;;;16.55;14.25;;;;;;;-146.25;100.00;52619.63;2079655;28;34762;-66
2024/02/22 03:14:16;;;;;;;14.73;12.98;;;;;;;-146.25;100.00;52637.88;2078846;28;35229;-66
2024/02/22 03:15:21;;;;;;;16.27;13.50;;;;;;;-146.25;100.00;52629.75;2079439;28;33860;-66
2024/02/22 03:16:24;;;;;;;17.60;13.90;;;;;;;-146.25;100.00;52615.56;2079328;28;33046;-66
2024/02/22 03:17:26;;;;;;;15.07;13.30;;;;;;;-146.25;100.00;52631.78;2079179;28;33680;-67
2024/02/22 03:18:28;;;;;;;14.18;12.73;;;;;;;-146.25;100.00;52605.44;2079272;28;36658;-66
2024/02/22 03:19:32;;;;;;;16.15;13.43;;;;;;;-146.25;100.00;52607.47;2079515;28;35848;-67
2024/02/22 03:20:34;;;;;;;15.20;13.13;;;;;;;-146.25;100.00;52603.41;2079179;28;31003;-66
2024/02/22 03:21:37;;;;;;;16.17;13.60;;;;;;;-146.25;100.00;52627.75;2079601;28;20896;-66
2024/02/22 03:22:40;;;;;;;15.02;13.43;;;;;;;-146.25;100.00;52603.41;2079193;28;31657;-66
2024/02/22 03:23:41;;;;;;;16.67;13.43;;;;;;;-146.25;100.00;52613.53;2070491;28;36186;-66
2024/02/22 03:24:46;;;;;;;14.88;13.18;;;;;;;-146.25;100.00;52660.19;2071437;28;20161;-66
2024/02/22 03:25:47;;;;;;;14.93;12.85;;;;;;;-146.25;100.00;52656.13;2079379;28;35064;-67
2024/02/22 03:26:49;;;;;;;15.45;13.23;;;;;;;-146.25;100.00;52635.84;2079010;28;33818;-67
2024/02/22 03:27:52;;;;;;;15.68;12.90;;;;;;;-146.25;100.00;52599.34;2070118;28;37600;-66
2024/02/22 03:28:53;;;;;;;14.85;13.15;;;;;;;-146.25;100.00;52595.28;2070095;28;35596;-67
2024/02/22 03:29:55;;;;;;;14.88;12.82;;;;;;;-146.25;100.00;52637.88;2079046;28;34373;-67
2024/02/22 03:30:59;;;;;;;15.65;13.00;;;;;;;-146.25;100.00;52611.50;2080260;28;20026;-66
2024/02/22 03:32:02;;;;;;;14.25;12.43;;;;;;;-146.25;100.00;52591.25;2079956;28;38774;-66
2024/02/22 03:33:04;;;;;;;15.68;13.40;;;;;;;-146.25;100.00;52605.44;2079566;28;34659;-66
2024/02/22 03:34:08;;;;;;;14.52;12.77;;;;;;;-146.25;100.00;52617.59;2080344;28;31435;-66
2024/02/22 03:35:10;;;;;;;14.48;12.55;;;;;;;-146.25;100.00;52611.50;2079901;28;36127;-65
2024/02/22 03:36:11;;;;;;;14.45;12.63;;;;;;;-146.25;100.00;52599.34;2080372;28;33824;-66
2024/02/22 03:37:13;;;;;;;15.05;13.00;;;;;;;-146.25;100.00;52631.78;2080620;28;34915;-66
2024/02/22 03:38:15;;;;;;;16.30;13.15;;;;;;;-146.25;100.00;52591.25;2080469;28;34837;-66
2024/02/22 03:39:17;;;;;;;14.98;12.70;;;;;;;-146.25;100.00;52633.81;2080846;28;20042;-66
2024/02/22 03:40:18;;;;;;;13.75;12.02;;;;;;;-146.25;100.00;52660.19;2079989;28;36240;-66
2024/02/22 03:41:24;;;;;;;14.43;12.32;;;;;;;-146.25;100.00;52613.53;2079909;28;38094;-66
2024/02/22 03:42:28;;;;;;;15.60;12.48;;;;;;;-146.25;100.00;52613.53;2071619;28;32939;-66
2024/02/22 03:43:33;;;;;;;16.77;12.68;;;;;;;-146.25;100.00;52637.88;2072276;28;39277;-66
2024/02/22 03:44:35;;;;;;;14.60;12.02;;;;;;;-146.25;100.00;52676.41;2080693;28;33235;-66
2024/02/22 03:45:37;;;;;;;14.50;12.07;;;;;;;-146.25;100.00;52605.44;2080291;28;35376;-66
2024/02/22 03:46:48;;;;;;;15.00;12.13;;;;;;;-146.25;100.00;52627.75;2080644;28;35867;-66
2024/02/22 03:47:52;;;;;;;14.52;12.25;;;;;;;-146.25;100.00;52615.56;2080243;28;36852;-66
2024/02/22 03:48:54;;;;;;;15.55;11.60;;;;;;;-146.25;100.00;52643.97;2080361;28;33648;-66
2024/02/22 03:49:59;;;;;;;17.15;11.40;;;;;;;-146.25;100.00;52629.75;2070968;28;36097;-65
2024/02/22 03:51:06;;;;;;;13.80;11.85;;;;;;;-146.25;100.00;52599.34;2072053;28;35980;-66
2024/02/22 03:52:08;;;;;;;14.63;12.70;;;;;;;-146.25;100.00;52613.53;2080596;28;32987;-65
2024/02/22 03:53:10;;;;;;;14.43;11.95;;;;;;;-146.25;100.00;52623.69;2080476;28;36273;-66
2024/02/22 03:54:12;;;;;;;14.32;10.95;;;;;;;-146.25;100.00;52607.47;2080460;28;33480;-66
2024/02/22 03:55:14;;;;;;;15.85;12.50;;;;;;;-146.25;100.00;52656.13;2080812;28;29084;-65
2024/02/22 03:56:17;;;;;;;15.93;11.45;;;;;;;-146.25;100.00;52623.69;2080006;28;35608;-67
2024/02/22 03:57:19;;;;;;;13.90;11.30;;;;;;;-146.25;100.00;52619.63;2080561;28;31102;-66
2024/02/22 03:58:21;;;;;;;16.30;11.82;;;;;;;-146.25;100.00;52627.75;2080136;28;33719;-66
2024/02/22 03:59:23;;;;;;;13.43;11.32;;;;;;;-146.25;100.00;52579.06;2080552;28;36000;-66
2024/02/22 04:00:27;;;;;;;14.10;11.45;;;;;;;-146.25;100.00;52641.94;2080255;28;32886;-66
2024/02/22 04:01:30;;;;;;;15.05;11.95;;;;;;;-146.25;100.00;52615.56;2080454;28;32408;-66
2024/02/22 04:02:32;;;;;;;15.77;11.90;;;;;;;-146.25;100.00;52662.22;2080076;28;29404;-66
2024/02/22 04:03:34;;;;;;;14.55;11.52;;;;;;;-146.25;100.00;52660.19;2081173;28;32842;-66
2024/02/22 04:04:36;;;;;;;13.70;10.93;;;;;;;-146.25;100.00;52623.69;2080047;28;33723;-66
2024/02/22 04:05:37;;;;;;;13.40;10.75;;;;;;;-146.25;100.00;52670.31;2071933;28;35525;-66
2024/02/22 04:06:40;;;;;;;13.88;11.38;;;;;;;-146.25;100.00;52643.97;2071588;28;33882;-67
2024/02/22 04:07:44;;;;;;;15.40;10.95;;;;;;;-146.25;100.00;52615.56;2080237;28;34516;-66
2024/02/22 04:08:46;;;;;;;14.07;11.30;;;;;;;-146.25;100.00;52629.75;2079977;28;34490;-66
2024/02/22 04:09:48;;;;;;;13.80;10.48;;;;;;;-146.25;100.00;52627.75;2080706;28;35687;-66
2024/02/22 04:10:52;;;;;;;17.92;10.40;;;;;;;-146.25;100.00;52621.66;2080139;28;36319;-66
2024/02/22 04:11:54;;;;;;;14.65;10.93;;;;;;;-146.25;100.00;52617.59;2081101;28;20084;-66
2024/02/22 04:12:56;;;;;;;14.18;11.57;;;;;;;-146.25;100.00;52643.97;2079899;28;32900;-66
2024/02/22 04:13:58;;;;;;;13.32;10.95;;;;;;;-146.25;100.00;52619.63;2080946;28;20213;-66
2024/02/22 04:15:00;;;;;;;14.43;10.68;;;;;;;-146.25;100.00;52599.34;2080049;28;34268;-66
2024/02/22 04:16:02;;;;;;;14.38;10.63;;;;;;;-146.25;100.00;52660.19;2080615;28;20168;-66
2024/02/22 04:17:04;;;;;;;13.43;10.27;;;;;;;-146.25;100.00;52605.44;2080174;28;36240;-67
2024/02/22 04:18:07;;;;;;;11.98;9.80;;;;;;;-146.25;100.00;52603.41;2080919;28;20038;-66
2024/02/22 04:19:08;;;;;;;12.80;9.85;;;;;;;-146.25;100.00;52648.00;2080141;28;36710;-66
2024/02/22 04:20:13;;;;;;;14.20;10.23;;;;;;;-146.25;100.00;52641.94;2079975;28;35532;-66
2024/02/22 04:21:17;;;;;;;14.45;10.63;;;;;;;-146.25;100.00;52631.78;2080672;28;20060;-66
2024/02/22 04:22:19;;;;;;;12.88;9.98;;;;;;;-146.25;100.00;52625.72;2072017;28;20176;-67
2024/02/22 04:23:21;;;;;;;11.60;9.55;;;;;;;-146.25;100.00;52650.03;2071163;28;38392;-66
2024/02/22 04:24:23;;;;;;;14.35;9.95;;;;;;;-146.25;100.00;52658.16;2080530;28;33923;-66
2024/02/22 04:25:25;;;;;;;12.32;9.38;;;;;;;-146.25;100.00;52643.97;2079871;28;37442;-66
2024/02/22 04:26:26;;;;;;;11.43;9.25;;;;;;;-146.25;100.00;52650.03;2080559;28;32904;-67
2024/02/22 04:27:28;;;;;;;12.38;9.30;;;;;;;-146.25;100.00;52635.84;2080070;28;36924;-66
2024/02/22 04:28:30;;;;;;;12.13;9.70;;;;;;;-146.25;100.00;52650.03;2080258;28;34984;-66
2024/02/22 04:29:31;;;;;;;11.18;9.35;;;;;;;-146.25;100.00;52631.78;2079615;28;30142;-66
2024/02/22 04:30:33;;;;;;;12.55;9.13;;;;;;;-146.25;100.00;52627.75;2071744;28;37069;-67
2024/02/22 04:31:37;;;;;;;11.15;8.57;;;;;;;-146.25;100.00;52639.91;2071416;28;21212;-66
2024/02/22 04:32:38;;;;;;;12.02;8.57;;;;;;;-146.25;100.00;52639.91;2080679;28;33166;-66
2024/02/22 04:33:40;;;;;;;10.98;8.35;;;;;;;-146.25;100.00;52662.22;2080023;28;34100;-66
2024/02/22 04:34:42;;;;;;;10.98;8.75;;;;;;;-146.25;100.00;52660.19;2071218;28;33410;-67
2024/02/22 04:35:47;;;;;;;10.45;8.73;;;;;;;-146.25;100.00;52633.81;2071319;28;36592;-66
2024/02/22 04:36:50;;;;;;;10.95;8.45;;;;;;;-146.25;100.00;52615.56;2071604;28;31208;-66
2024/02/22 04:37:53;;;;;;;13.35;8.45;;;;;;;-146.25;100.00;52627.75;2071989;28;34522;-66
2024/02/22 04:38:55;;;;;;;10.57;8.48;;;;;;;-146.25;100.00;52656.13;2080813;28;20042;-66
2024/02/22 04:39:56;;;;;;;9.80;7.90;;;;;;;-146.25;100.00;52623.69;2079704;28;33550;-66